Main page
METAR-TAF:

METAR-TAF

Airports :

Cherbourg, France

Cherbourg – Maupertus Airport

latitude: 49-39N, longitude: 001-28W, elevation: 138 m

Current weather observation

The report was made 16 minutes ago, at 07:00 UTC
Wind 12 kt from the West, varying between West/Southwest and Northwest
Temperature 15°C
Humidity 82%
Pressure 1020 hPa
Visibility 10 km or more
Broken clouds at a height of 1700 ft
Broken clouds at a height of 2200 ft
Broken clouds at a height of 3200 ft

METAR: LFRC 190700Z AUTO 27012KT 240V310 9999 BKN017 BKN022 BKN032 15/12 Q1020 BECMG 28015G25KT

Time: 09:16 (07:16 UTC)

Forecast

The report was made 2 hours and 16 minutes ago, at 05:00 UTC
Forecast valid from 19 at 06 UTC to 19 at 15 UTC
Wind 15 kt from the West with gusts up to 25 kt
Visibility 10 km or more
Broken clouds at a height of 2000 ft
Temporary
from 19 at 10 UTC to 19 at 12 UTC
Wind 15 kt from the West

TAF: LFRC 190500Z 1906/1915 28015G25KT 9999 BKN020 TEMPO 1910/1912 28015KT

Weather observations and forecasts of more than 4000 airports (METAR and TAF reports).

The available stations are represented by yellow and red dots on the map.

Hover mouse over dot to see the name of the station.

Then click to see weather observations and forecasts.

To change the map : click on the green buttons with a black cross to zoom in, on the green button with a dash to zoom out, or on the green arrows for adjacent maps.


METAR-TAF: